Superior, Arizona
Current Conditions -  °F | °C
As of 12:47 PM on Thursday 18 Dec 2014 (Local Time) from KIWA Reporting Station
Broken Clouds Broken Clouds  
Wind Chill: 63°   Ceiling: 10000
Heat Index: 63°   Visibility: 35mi
Dew Point: 45°   Wind: 7mph
Humidity: 52%   Direction: 280°W
Pressure: 30.12"   Gusts: NA
Location:  33.29°N, 111.1°W
Report Text: KIWA 181947Z 28006KT 35SM SCT050 BKN100 17/07 A3012
Loading
Personal Weather Stations






























Interactive Weather Map New forecast layout! Learn more

10-Day Weather Forecast

Advertisements
Track Severe Weather on mobile